Time;durP1;ratioP1;P1;durP2;ratioP2;P2;SDS_P1;SDS_P2;PMS_P1;PMS_P2;Temp;Humidity;BMP_temperature;BMP_pressure;BME280_temperature;BME280_humidity;BME280_pressure;Samples;Min_cycle;Max_cycle;Signal;HPM_P1;HPM_P2
2022/10/23 00:01:55;;;;;;;11.30;7.60;;;14.80;99.90;;;;;;5132681;27;20435;-51
2022/10/23 00:04:24;;;;;;;10.40;7.83;;;14.70;99.90;;;;;;5131809;27;20938;-50
2022/10/23 00:06:51;;;;;;;8.13;6.70;;;14.40;99.90;;;;;;5132905;27;20805;-50
2022/10/23 00:09:20;;;;;;;10.40;7.37;;;14.70;99.90;;;;;;5132445;27;20435;-50
2022/10/23 00:11:47;;;;;;;8.60;7.83;;;14.50;99.90;;;;;;5132508;27;20467;-51
2022/10/23 00:14:15;;;;;;;12.87;7.67;;;14.90;99.90;;;;;;5132947;27;20429;-49
2022/10/23 00:16:43;;;;;;;14.50;8.63;;;14.30;99.90;;;;;;5132216;27;20445;-50
2022/10/23 00:19:09;;;;;;;8.20;7.40;;;14.90;99.90;;;;;;5113809;27;20443;-49
2022/10/23 00:21:36;;;;;;;9.90;7.57;;;14.60;99.90;;;;;;5132612;27;20468;-49
2022/10/23 00:24:03;;;;;;;10.03;7.53;;;14.70;99.90;;;;;;5132388;27;20824;-50
2022/10/23 00:26:30;;;;;;;12.50;9.10;;;14.70;99.90;;;;;;5132599;27;20915;-50
2022/10/23 00:28:56;;;;;;;11.20;8.70;;;14.70;99.90;;;;;;5113755;27;20445;-50
2022/10/23 00:31:24;;;;;;;11.13;8.77;;;14.40;99.90;;;;;;5113785;27;20462;-50
2022/10/23 00:33:53;;;;;;;12.20;7.07;;;14.10;99.90;;;;;;5131977;27;20448;-50
2022/10/23 00:36:21;;;;;;;9.20;8.20;;;14.60;99.90;;;;;;5113878;27;20465;-50
2022/10/23 00:38:49;;;;;;;10.03;8.03;;;14.70;99.90;;;;;;5113556;27;20910;-51
2022/10/23 00:41:19;;;;;;;11.70;9.20;;;14.40;99.90;;;;;;5132341;27;20524;-51
2022/10/23 00:44:07;;;;;;;15.57;8.13;;;14.20;99.90;;;;;;5113600;28;20458;-51
2022/10/23 00:46:34;;;;;;;10.63;8.30;;;14.70;99.90;;;;;;5132216;28;20431;-52
2022/10/23 00:49:04;;;;;;;8.27;7.03;;;14.10;99.90;;;;;;5131548;28;20438;-50
2022/10/23 00:51:36;;;;;;;11.63;7.50;;;14.50;99.90;;;;;;5132173;28;20968;-49
2022/10/23 00:54:04;;;;;;;8.73;7.83;;;14.60;99.90;;;;;;5132332;28;20823;-50
2022/10/23 00:56:33;;;;;;;9.03;7.40;;;14.40;99.90;;;;;;5132102;28;20431;-50
2022/10/23 00:58:59;;;;;;;8.63;7.73;;;14.50;99.90;;;;;;5131994;28;20434;-50
2022/10/23 01:01:26;;;;;;;14.67;8.27;;;14.90;99.90;;;;;;5113698;28;20443;-51
2022/10/23 01:03:53;;;;;;;8.50;6.67;;;14.70;99.90;;;;;;5132147;28;20450;-50
2022/10/23 01:06:31;;;;;;;11.70;7.77;;;14.90;99.90;;;;;;5132244;28;20427;-51
2022/10/23 01:09:06;;;;;;;10.83;7.20;;;14.80;99.90;;;;;;5131948;28;20432;-51
2022/10/23 01:11:40;;;;;;;10.10;6.50;;;14.70;99.90;;;;;;5132218;28;20529;-50
2022/10/23 01:14:14;;;;;;;9.50;6.90;;;14.90;99.90;;;;;;5132810;27;20504;-51
2022/10/23 01:16:49;;;;;;;9.33;6.93;;;14.80;99.90;;;;;;5135878;27;20433;-51
2022/10/23 01:19:21;;;;;;;12.70;6.93;;;14.90;99.90;;;;;;5117347;27;20439;-51
2022/10/23 01:21:55;;;;;;;6.53;5.80;;;15.00;99.90;;;;;;5136082;27;20515;-51
2022/10/23 01:24:36;;;;;;;13.50;7.30;;;14.90;99.90;;;;;;5136104;27;20426;-51
2022/10/23 01:27:18;;;;;;;8.13;6.60;;;15.00;99.90;;;;;;5117676;27;20490;-50
2022/10/23 01:29:49;;;;;;;8.87;7.70;;;14.80;99.90;;;;;;5117162;27;20447;-52
2022/10/23 01:32:21;;;;;;;13.77;7.17;;;15.10;99.90;;;;;;5117234;27;20485;-51
2022/10/23 01:34:51;;;;;;;9.00;7.53;;;15.00;99.90;;;;;;5117391;27;20470;-50
2022/10/23 01:37:24;;;;;;;9.17;7.23;;;14.70;99.90;;;;;;5117342;27;20449;-51
2022/10/23 01:39:55;;;;;;;17.07;7.87;;;14.90;99.90;;;;;;5117116;27;20462;-51
2022/10/23 01:42:30;;;;;;;13.30;7.87;;;14.80;99.90;;;;;;5117066;27;20462;-51
2022/10/23 01:45:00;;;;;;;9.70;6.77;;;15.00;99.90;;;;;;5116847;27;20453;-52
2022/10/23 01:47:36;;;;;;;10.00;6.73;;;14.50;99.90;;;;;;5117047;27;20514;-50
2022/10/23 01:50:07;;;;;;;10.37;8.10;;;14.80;99.90;;;;;;5116765;27;20443;-51
2022/10/23 01:52:34;;;;;;;9.83;7.57;;;14.50;99.90;;;;;;5117151;27;20906;-51
2022/10/23 01:55:05;;;;;;;11.83;7.57;;;14.60;99.90;;;;;;5116807;27;20451;-51
2022/10/23 01:57:37;;;;;;;8.80;7.00;;;14.70;99.90;;;;;;5135478;27;20472;-52
2022/10/23 02:00:06;;;;;;;17.70;7.80;;;14.60;99.90;;;;;;5116559;27;20454;-51
2022/10/23 02:02:40;;;;;;;7.47;6.23;;;14.70;99.90;;;;;;5135029;27;20436;-50
2022/10/23 02:05:10;;;;;;;11.47;7.13;;;14.60;99.90;;;;;;5116530;27;20434;-50
2022/10/23 02:07:37;;;;;;;9.03;6.67;;;15.00;99.90;;;;;;5135435;27;20434;-51
2022/10/23 02:10:08;;;;;;;11.87;6.00;;;14.60;99.90;;;;;;5117040;27;20461;-51
2022/10/23 02:12:42;;;;;;;13.43;6.83;;;15.00;99.90;;;;;;5116876;27;20482;-52
2022/10/23 02:15:13;;;;;;;11.57;7.53;;;14.70;99.90;;;;;;5116587;27;20439;-50
2022/10/23 02:17:48;;;;;;;8.97;6.90;;;14.80;99.90;;;;;;5116601;27;20756;-51
2022/10/23 02:20:20;;;;;;;9.83;7.80;;;14.70;99.90;;;;;;5116170;27;20439;-51
2022/10/23 02:22:58;;;;;;;10.00;6.10;;;14.90;99.90;;;;;;5135046;27;20463;-52
2022/10/23 02:25:31;;;;;;;9.77;8.30;;;14.90;99.90;;;;;;5134279;27;20425;-52
2022/10/23 02:28:04;;;;;;;9.90;6.07;;;14.90;99.90;;;;;;5116323;27;20464;-51
2022/10/23 02:30:44;;;;;;;16.73;7.50;;;14.90;99.90;;;;;;5116203;27;20816;-50
2022/10/23 02:33:14;;;;;;;18.07;6.70;;;14.80;99.90;;;;;;5116699;27;20550;-52
2022/10/23 02:35:41;;;;;;;13.07;7.20;;;14.80;99.90;;;;;;5116664;27;20537;-50
2022/10/23 02:38:30;;;;;;;11.97;7.37;;;14.40;99.90;;;;;;5116509;27;20438;-50
2022/10/23 02:41:01;;;;;;;11.13;6.93;;;14.90;99.90;;;;;;5134656;27;20429;-51
2022/10/23 02:43:35;;;;;;;11.63;6.80;;;14.80;99.90;;;;;;5116194;27;20463;-52
2022/10/23 02:46:11;;;;;;;10.23;7.50;;;14.90;99.90;;;;;;5115843;27;20455;-51
2022/10/23 02:48:44;;;;;;;8.07;6.57;;;15.00;99.90;;;;;;5133973;27;20480;-51
2022/10/23 02:51:18;;;;;;;7.70;6.60;;;15.10;99.90;;;;;;5115784;27;20766;-52
2022/10/23 02:53:53;;;;;;;9.63;6.90;;;14.40;99.90;;;;;;5115785;27;20486;-51
2022/10/23 02:56:28;;;;;;;9.40;7.03;;;14.70;99.90;;;;;;5115912;27;20997;-51
2022/10/23 02:59:04;;;;;;;10.57;7.77;;;14.80;99.90;;;;;;5133900;27;20433;-51
2022/10/23 03:01:38;;;;;;;7.10;6.37;;;14.70;99.90;;;;;;5115887;27;20482;-51
2022/10/23 03:04:06;;;;;;;9.07;6.33;;;14.60;99.90;;;;;;5115384;27;20463;-52
2022/10/23 03:06:33;;;;;;;13.27;8.33;;;14.80;99.90;;;;;;5115671;27;20958;-52
2022/10/23 03:09:02;;;;;;;10.60;6.97;;;14.60;99.90;;;;;;5115283;27;20417;-50
2022/10/23 03:11:29;;;;;;;8.17;6.50;;;14.80;99.90;;;;;;5133861;27;20431;-51
2022/10/23 03:13:57;;;;;;;9.57;6.60;;;14.30;99.90;;;;;;5115531;27;20575;-50
2022/10/23 03:16:24;;;;;;;9.10;8.07;;;14.80;99.90;;;;;;5115313;27;20475;-51
2022/10/23 03:18:53;;;;;;;8.80;7.03;;;14.70;99.90;;;;;;5114906;27;20802;-51
2022/10/23 03:21:20;;;;;;;9.67;7.40;;;14.60;99.90;;;;;;5115113;27;20439;-48
2022/10/23 03:23:50;;;;;;;8.17;7.13;;;14.60;99.90;;;;;;5114810;27;20473;-50
2022/10/23 03:26:22;;;;;;;11.23;6.20;;;14.70;99.90;;;;;;5114903;27;20450;-49
2022/10/23 03:28:49;;;;;;;13.87;7.47;;;14.40;99.90;;;;;;5114673;27;20919;-50
2022/10/23 03:31:19;;;;;;;10.77;7.83;;;14.30;99.90;;;;;;5114813;27;20528;-50
2022/10/23 03:33:46;;;;;;;9.17;8.00;;;14.30;99.90;;;;;;5114749;27;20563;-49
2022/10/23 03:36:13;;;;;;;11.80;8.17;;;14.20;99.90;;;;;;5133373;27;20456;-50
2022/10/23 03:38:40;;;;;;;13.40;9.03;;;14.20;99.90;;;;;;5114152;27;21038;-51
2022/10/23 03:41:06;;;;;;;8.43;7.57;;;13.90;99.90;;;;;;5114570;27;20451;-50
2022/10/23 03:43:33;;;;;;;13.13;8.50;;;14.50;99.90;;;;;;5114571;27;20462;-51
2022/10/23 03:46:00;;;;;;;10.07;8.03;;;14.30;99.90;;;;;;5114748;27;20471;-51
2022/10/23 03:48:28;;;;;;;9.13;7.27;;;14.50;99.90;;;;;;5114410;27;20454;-51
2022/10/23 03:50:58;;;;;;;11.53;8.00;;;14.30;99.90;;;;;;5114836;27;20535;-51
2022/10/23 03:53:25;;;;;;;10.97;7.70;;;14.10;99.90;;;;;;5132864;27;20960;-49
2022/10/23 03:55:51;;;;;;;16.73;10.50;;;14.10;99.90;;;;;;5114605;27;20436;-50
2022/10/23 03:58:18;;;;;;;10.70;7.87;;;14.20;99.90;;;;;;5114686;27;20447;-51
2022/10/23 04:00:45;;;;;;;13.00;9.07;;;14.10;99.90;;;;;;5114283;27;20455;-50
2022/10/23 04:03:12;;;;;;;10.70;8.60;;;14.20;99.90;;;;;;5114263;27;20469;-51
2022/10/23 04:05:41;;;;;;;12.27;8.50;;;14.30;99.90;;;;;;5114481;27;20442;-51
2022/10/23 04:08:08;;;;;;;9.60;8.50;;;14.00;99.90;;;;;;5114351;27;20447;-51
2022/10/23 04:10:35;;;;;;;9.40;8.00;;;14.10;99.90;;;;;;5114145;27;20446;-51
2022/10/23 04:13:02;;;;;;;15.90;9.27;;;14.10;99.90;;;;;;5132661;27;20482;-51
2022/10/23 04:15:32;;;;;;;9.50;7.60;;;13.70;99.90;;;;;;5114281;28;20553;-52
2022/10/23 04:18:01;;;;;;;10.53;8.87;;;13.90;99.90;;;;;;5114436;27;20440;-51
2022/10/23 04:20:28;;;;;;;16.17;8.30;;;13.90;99.90;;;;;;5113806;27;20458;-50
2022/10/23 04:22:56;;;;;;;11.00;8.13;;;13.70;99.90;;;;;;5114533;27;20471;-51
2022/10/23 04:25:22;;;;;;;10.80;8.13;;;14.00;99.90;;;;;;5114138;27;20470;-51
2022/10/23 04:27:50;;;;;;;9.13;8.23;;;13.60;99.90;;;;;;5114193;27;20448;-51
2022/10/23 04:30:17;;;;;;;11.87;9.47;;;13.80;99.90;;;;;;5113835;28;20447;-51
2022/10/23 04:32:45;;;;;;;11.03;9.27;;;13.20;99.90;;;;;;5114217;27;20513;-51
2022/10/23 04:35:11;;;;;;;14.70;10.20;;;13.60;99.90;;;;;;5132589;27;20439;-51
2022/10/23 04:37:38;;;;;;;14.30;9.87;;;13.60;99.90;;;;;;5132566;27;20426;-50
2022/10/23 04:40:08;;;;;;;15.60;10.70;;;13.60;99.90;;;;;;5113759;28;20534;-50
2022/10/23 04:42:37;;;;;;;12.70;10.23;;;13.60;99.90;;;;;;5113962;28;20943;-51
2022/10/23 04:45:04;;;;;;;12.53;9.20;;;13.50;99.90;;;;;;5132353;28;20405;-51
2022/10/23 04:47:31;;;;;;;19.80;10.40;;;13.50;99.90;;;;;;5114013;28;20507;-50
2022/10/23 04:49:59;;;;;;;12.20;8.60;;;13.30;99.90;;;;;;5115840;27;20806;-51
2022/10/23 04:52:44;;;;;;;13.20;9.00;;;13.60;99.90;;;;;;5136801;27;21009;-50
2022/10/23 04:55:30;;;;;;;10.33;8.53;;;13.50;99.90;;;;;;5136831;27;20442;-50
2022/10/23 04:58:17;;;;;;;13.53;10.60;;;13.20;99.90;;;;;;5135560;27;20514;-50
2022/10/23 05:00:44;;;;;;;15.63;10.13;;;13.40;99.90;;;;;;5117605;27;20499;-51
2022/10/23 05:03:14;;;;;;;12.67;9.40;;;13.00;99.90;;;;;;5117713;27;20519;-51
2022/10/23 05:05:42;;;;;;;13.87;9.70;;;13.10;99.90;;;;;;5117946;27;20534;-51
2022/10/23 05:08:28;;;;;;;15.73;10.97;;;12.90;99.90;;;;;;5117685;27;20809;-51
2022/10/23 05:11:15;;;;;;;15.43;10.00;;;13.20;99.90;;;;;;5136279;27;20421;-51
2022/10/23 05:13:48;;;;;;;13.60;9.43;;;13.40;99.90;;;;;;5117356;27;20486;-51
2022/10/23 05:16:28;;;;;;;13.30;10.53;;;13.40;99.90;;;;;;5117288;27;20443;-51
2022/10/23 05:18:55;;;;;;;14.23;9.40;;;13.40;99.90;;;;;;5135419;27;20435;-50
2022/10/23 05:21:26;;;;;;;16.30;10.37;;;13.10;99.90;;;;;;5117545;27;20472;-51
2022/10/23 05:23:53;;;;;;;21.70;13.67;;;13.40;99.90;;;;;;5135856;27;20457;-51
2022/10/23 05:26:22;;;;;;;17.70;12.73;;;13.20;99.90;;;;;;5117436;27;20524;-51
2022/10/23 05:28:49;;;;;;;17.67;12.23;;;13.30;99.90;;;;;;5116988;27;20926;-51
2022/10/23 05:31:18;;;;;;;18.87;11.10;;;13.20;99.90;;;;;;5117461;27;20465;-51
2022/10/23 05:33:49;;;;;;;25.93;11.80;;;12.50;99.90;;;;;;5117490;27;20472;-50
2022/10/23 05:36:16;;;;;;;20.97;11.90;;;12.90;99.90;;;;;;5117114;27;20552;-51
2022/10/23 05:38:45;;;;;;;16.00;11.20;;;13.10;99.90;;;;;;5116963;27;20451;-51
2022/10/23 05:41:16;;;;;;;14.50;11.23;;;13.30;99.90;;;;;;5117469;27;21031;-50
2022/10/23 05:43:45;;;;;;;12.23;10.93;;;13.20;99.90;;;;;;5116856;27;20467;-51
2022/10/23 05:46:30;;;;;;;25.17;12.47;;;13.20;99.90;;;;;;5135697;27;20421;-50
2022/10/23 05:49:15;;;;;;;18.63;13.20;;;12.50;99.90;;;;;;5135608;27;20428;-50
2022/10/23 05:51:52;;;;;;;21.87;12.53;;;12.90;99.90;;;;;;5117093;27;20439;-50
2022/10/23 05:54:28;;;;;;;15.30;11.87;;;13.00;99.90;;;;;;5135475;27;20884;-50
2022/10/23 05:57:13;;;;;;;15.00;10.30;;;13.10;99.90;;;;;;5135869;27;20471;-51
2022/10/23 05:59:48;;;;;;;14.10;10.60;;;12.70;99.90;;;;;;5134832;27;20438;-51
2022/10/23 06:02:27;;;;;;;17.27;11.67;;;13.20;99.90;;;;;;5135021;27;20909;-52
2022/10/23 06:05:04;;;;;;;15.53;13.37;;;12.80;99.90;;;;;;5116719;27;20441;-51
2022/10/23 06:07:51;;;;;;;17.87;12.87;;;13.10;99.90;;;;;;5135360;27;20430;-51
2022/10/23 06:10:19;;;;;;;16.90;11.60;;;12.80;99.90;;;;;;5116240;27;20443;-50
2022/10/23 06:12:48;;;;;;;16.00;12.40;;;13.00;99.90;;;;;;5116465;27;20845;-52
2022/10/23 06:15:18;;;;;;;14.87;11.13;;;12.80;99.90;;;;;;5116815;27;20482;-51
2022/10/23 06:18:03;;;;;;;16.03;12.67;;;13.00;99.90;;;;;;5116710;27;20459;-50
2022/10/23 06:20:36;;;;;;;15.00;11.37;;;13.00;99.90;;;;;;5116145;27;20447;-53
2022/10/23 06:23:09;;;;;;;12.30;10.93;;;13.50;99.90;;;;;;5116461;27;20497;-51
2022/10/23 06:25:55;;;;;;;16.47;11.60;;;13.50;99.90;;;;;;5135414;27;20429;-51
2022/10/23 06:28:29;;;;;;;17.13;11.87;;;13.10;99.90;;;;;;5116278;27;20817;-51
2022/10/23 06:30:57;;;;;;;16.93;12.03;;;13.10;99.90;;;;;;5116202;27;20454;-51
2022/10/23 06:33:24;;;;;;;16.67;12.50;;;13.10;99.90;;;;;;5116278;27;20570;-51
2022/10/23 06:35:51;;;;;;;14.37;11.17;;;12.60;99.90;;;;;;5116209;27;20857;-52
2022/10/23 06:38:17;;;;;;;20.47;14.23;;;13.60;99.90;;;;;;5116037;27;20462;-51
2022/10/23 06:40:54;;;;;;;18.63;11.67;;;13.60;99.90;;;;;;5116279;27;20819;-52
2022/10/23 06:43:27;;;;;;;16.73;13.17;;;13.10;99.90;;;;;;5115810;27;20852;-50
2022/10/23 06:46:14;;;;;;;21.83;15.50;;;13.20;99.90;;;;;;5115891;27;20453;-50
2022/10/23 06:49:01;;;;;;;15.83;11.90;;;13.70;99.90;;;;;;5134115;27;20912;-52
2022/10/23 06:51:32;;;;;;;16.13;12.60;;;13.40;99.90;;;;;;5115902;27;20545;-51
2022/10/23 06:53:58;;;;;;;14.50;12.47;;;13.20;99.90;;;;;;5115587;27;20471;-51
2022/10/23 06:56:43;;;;;;;19.83;12.80;;;13.20;99.90;;;;;;5134281;27;20476;-50
2022/10/23 06:59:11;;;;;;;18.70;12.63;;;13.20;99.90;;;;;;5115230;27;20438;-49
2022/10/23 07:01:39;;;;;;;17.70;13.27;;;13.60;99.90;;;;;;5115695;27;20908;-51
2022/10/23 07:04:07;;;;;;;17.90;12.40;;;13.50;99.90;;;;;;5115489;27;20463;-51
2022/10/23 07:06:34;;;;;;;14.37;12.13;;;13.60;99.90;;;;;;5115188;27;20459;-50
2022/10/23 07:09:00;;;;;;;14.17;12.67;;;13.60;99.90;;;;;;5115143;27;20458;-51
2022/10/23 07:11:53;;;;;;;14.00;12.60;;;13.20;99.90;;;;;;5133284;27;20447;-49
2022/10/23 07:14:29;;;;;;;18.83;12.30;;;14.20;99.90;;;;;;5115439;27;20987;-51
2022/10/23 07:16:57;;;;;;;15.30;12.40;;;13.70;99.90;;;;;;5115130;27;20461;-51
2022/10/23 07:19:24;;;;;;;15.97;12.53;;;13.60;99.90;;;;;;5114953;27;20462;-52
2022/10/23 07:21:56;;;;;;;14.90;13.20;;;13.70;99.90;;;;;;5115072;27;20939;-51
2022/10/23 07:24:42;;;;;;;19.23;13.33;;;13.40;99.90;;;;;;5115228;27;20542;-51
2022/10/23 07:27:26;;;;;;;14.07;12.60;;;13.30;99.90;;;;;;5114978;27;20947;-51
2022/10/23 07:30:00;;;;;;;14.43;12.37;;;13.90;99.90;;;;;;5114757;27;20451;-49
2022/10/23 07:32:31;;;;;;;19.03;14.33;;;13.30;99.90;;;;;;5115177;27;20821;-50
2022/10/23 07:35:35;;;;;;;14.57;12.47;;;13.60;99.90;;;;;;5115646;27;21002;-51
2022/10/23 07:38:08;;;;;;;15.03;12.63;;;13.90;99.90;;;;;;5115122;27;20475;-51
2022/10/23 07:40:40;;;;;;;15.93;14.00;;;14.10;99.90;;;;;;5114925;27;20466;-52
2022/10/23 07:43:09;;;;;;;16.53;13.00;;;14.30;99.90;;;;;;5114911;27;20550;-52
2022/10/23 07:45:35;;;;;;;13.53;12.07;;;13.80;99.90;;;;;;5114564;27;21036;-50
2022/10/23 07:48:11;;;;;;;14.53;12.97;;;14.20;99.90;;;;;;5115245;27;20809;-51
2022/10/23 07:51:00;;;;;;;18.03;12.10;;;13.90;99.90;;;;;;5115021;27;20462;-51
2022/10/23 07:53:27;;;;;;;13.93;12.40;;;14.30;99.90;;;;;;5133365;27;20462;-49
2022/10/23 07:56:01;;;;;;;19.40;12.50;;;14.10;99.90;;;;;;5114893;27;20954;-50
2022/10/23 07:58:47;;;;;;;13.37;12.07;;;14.60;99.90;;;;;;5114522;27;20463;-50
2022/10/23 08:01:19;;;;;;;20.10;13.53;;;14.40;99.90;;;;;;5114800;27;20444;-50
2022/10/23 08:03:48;;;;;;;15.13;13.53;;;14.70;99.90;;;;;;5114573;27;20486;-52
2022/10/23 08:06:14;;;;;;;14.40;12.63;;;14.40;99.90;;;;;;5114453;27;20548;-52
2022/10/23 08:08:41;;;;;;;15.77;12.00;;;14.40;99.90;;;;;;5114051;27;20455;-51
2022/10/23 08:11:12;;;;;;;15.90;12.73;;;14.50;99.90;;;;;;5115147;27;20771;-50
2022/10/23 08:13:47;;;;;;;14.13;12.33;;;14.70;99.90;;;;;;5114825;27;20562;-51
2022/10/23 08:16:14;;;;;;;15.33;11.30;;;14.60;99.90;;;;;;5114687;27;20439;-51
2022/10/23 08:19:01;;;;;;;10.53;9.20;;;14.80;99.90;;;;;;5133061;27;20417;-50
2022/10/23 08:21:29;;;;;;;15.57;10.90;;;14.80;99.90;;;;;;5113840;27;20489;-52
2022/10/23 08:23:57;;;;;;;12.80;11.03;;;14.90;99.90;;;;;;5113031;27;20480;-52
2022/10/23 08:26:25;;;;;;;16.67;11.10;;;15.00;99.90;;;;;;5113827;27;20860;-50
2022/10/23 08:28:52;;;;;;;12.83;11.53;;;14.90;99.90;;;;;;5113850;28;20455;-51
2022/10/23 08:31:20;;;;;;;11.30;9.97;;;15.00;99.90;;;;;;5114051;28;20791;-51
2022/10/23 08:34:07;;;;;;;11.57;10.40;;;14.70;99.90;;;;;;5113762;28;20990;-52
2022/10/23 08:36:35;;;;;;;14.10;10.17;;;14.80;99.90;;;;;;5113792;28;20447;-51
2022/10/23 08:39:03;;;;;;;12.10;9.80;;;15.10;99.90;;;;;;5113862;27;20446;-52
2022/10/23 08:41:33;;;;;;;12.43;9.40;;;14.80;99.90;;;;;;5113629;27;20969;-51
2022/10/23 08:44:14;;;;;;;13.27;9.90;;;15.20;99.90;;;;;;5132082;27;20447;-50
2022/10/23 08:46:47;;;;;;;12.97;9.33;;;15.50;99.90;;;;;;5113763;28;20441;-51
2022/10/23 08:49:42;;;;;;;11.77;8.80;;;15.20;99.90;;;;;;5132049;28;20418;-50
2022/10/23 08:52:20;;;;;;;14.47;9.47;;;15.40;99.90;;;;;;5113723;28;20566;-51
2022/10/23 08:54:56;;;;;;;9.40;8.17;;;15.40;99.90;;;;;;5131864;28;20471;-51
2022/10/23 08:57:31;;;;;;;9.57;7.50;;;15.30;99.90;;;;;;5132026;28;20438;-51
2022/10/23 09:00:01;;;;;;;12.27;7.43;;;15.50;99.90;;;;;;5131720;28;20895;-51
2022/10/23 09:02:31;;;;;;;11.07;7.50;;;15.20;99.90;;;;;;5132227;28;20471;-51
2022/10/23 09:04:59;;;;;;;12.90;7.57;;;15.20;99.90;;;;;;5132296;28;20431;-51
2022/10/23 09:07:36;;;;;;;6.83;6.03;;;15.30;99.90;;;;;;5113492;28;20442;-51
2022/10/23 09:10:14;;;;;;;12.20;7.70;;;15.40;99.90;;;;;;5131992;28;20934;-50
2022/10/23 09:12:42;;;;;;;9.07;6.87;;;15.50;99.90;;;;;;5131905;28;20450;-51
2022/10/23 09:15:22;;;;;;;8.93;7.47;;;15.10;99.90;;;;;;5131820;28;20478;-51
2022/10/23 09:17:55;;;;;;;7.33;6.63;;;15.20;99.90;;;;;;5131877;28;20423;-51
2022/10/23 09:20:26;;;;;;;10.20;8.27;;;15.20;99.90;;;;;;5131384;28;20806;-50
2022/10/23 09:22:57;;;;;;;9.80;6.60;;;15.40;99.90;;;;;;5131792;28;20478;-50
2022/10/23 09:25:25;;;;;;;9.33;6.77;;;15.30;99.90;;;;;;5132055;28;20439;-51
2022/10/23 09:27:53;;;;;;;9.67;6.20;;;15.40;99.90;;;;;;5113576;28;20851;-51
2022/10/23 09:30:29;;;;;;;11.50;6.60;;;15.20;99.90;;;;;;5131716;28;20860;-51
2022/10/23 09:32:55;;;;;;;10.40;6.97;;;15.50;99.90;;;;;;5131284;28;20875;-51
2022/10/23 09:35:27;;;;;;;10.93;7.53;;;15.10;99.90;;;;;;5132601;27;20828;-51
2022/10/23 09:37:54;;;;;;;8.40;7.17;;;15.50;99.90;;;;;;5135749;27;20875;-51
2022/10/23 09:40:28;;;;;;;13.30;6.60;;;15.60;99.90;;;;;;5135157;27;20434;-52
2022/10/23 09:42:58;;;;;;;9.70;7.40;;;15.30;99.90;;;;;;5135276;27;20449;-51
2022/10/23 09:45:28;;;;;;;8.20;6.70;;;15.70;99.90;;;;;;5135649;27;20467;-52
2022/10/23 09:48:14;;;;;;;9.03;5.80;;;15.70;99.90;;;;;;5117742;27;20451;-50
2022/10/23 09:50:51;;;;;;;14.87;6.57;;;15.70;99.90;;;;;;5134944;27;20434;-53
2022/10/23 09:53:24;;;;;;;11.83;6.10;;;15.60;99.90;;;;;;5135317;27;20467;-53
2022/10/23 09:55:52;;;;;;;9.17;5.90;;;15.80;99.90;;;;;;5135485;27;20467;-51
2022/10/23 09:58:24;;;;;;;10.90;5.80;;;15.80;99.90;;;;;;5135193;27;20499;-50
2022/10/23 10:00:51;;;;;;;7.20;5.83;;;16.10;99.90;;;;;;5116627;27;20950;-52
2022/10/23 10:03:21;;;;;;;9.80;5.63;;;16.30;99.90;;;;;;5135128;27;20452;-50
2022/10/23 10:06:04;;;;;;;9.00;4.30;;;15.80;99.90;;;;;;5116887;27;20479;-52
2022/10/23 10:08:46;;;;;;;9.03;4.40;;;16.10;99.90;;;;;;5116209;27;20470;-51
2022/10/23 10:11:19;;;;;;;10.20;4.97;;;16.00;99.90;;;;;;5135266;27;20443;-52
2022/10/23 10:14:01;;;;;;;7.17;4.03;;;16.50;99.90;;;;;;5116350;27;20459;-51
2022/10/23 10:16:37;;;;;;;6.37;4.77;;;16.10;99.90;;;;;;5135114;27;20589;-52
2022/10/23 10:19:17;;;;;;;8.60;5.17;;;16.30;99.90;;;;;;5116369;27;20416;-52
2022/10/23 10:21:52;;;;;;;7.77;4.33;;;16.30;99.90;;;;;;5117065;27;20439;-50
2022/10/23 10:24:25;;;;;;;12.60;5.53;;;16.10;99.90;;;;;;5136149;27;20441;-46
2022/10/23 10:27:01;;;;;;;6.17;4.30;;;16.50;99.90;;;;;;5135304;27;20625;-48
2022/10/23 10:29:45;;;;;;;9.07;4.47;;;16.40;99.90;;;;;;5134774;27;20427;-47
2022/10/23 10:32:24;;;;;;;9.00;4.60;;;16.50;99.90;;;;;;5134782;27;20984;-47
2022/10/23 10:34:55;;;;;;;5.57;3.60;;;16.60;99.90;;;;;;5134708;27;20540;-51
2022/10/23 10:37:32;;;;;;;9.80;3.87;;;16.70;99.90;;;;;;5134889;27;20435;-49
2022/10/23 10:40:08;;;;;;;7.03;3.80;;;16.60;99.90;;;;;;5115362;27;20459;-49
2022/10/23 10:42:54;;;;;;;7.80;3.60;;;17.20;99.90;;;;;;5134568;27;20448;-49
2022/10/23 10:45:31;;;;;;;12.73;9.73;;;16.80;99.90;;;;;;5134464;27;20428;-47
2022/10/23 10:48:19;;;;;;;9.40;7.90;;;17.20;99.90;;;;;;5132891;27;20745;-48
2022/10/23 10:51:09;;;;;;;9.50;5.13;;;16.90;99.90;;;;;;5134610;27;20433;-48
2022/10/23 10:54:04;;;;;;;7.57;4.07;;;17.00;99.90;;;;;;5133821;27;20517;-48
2022/10/23 10:56:37;;;;;;;6.10;3.50;;;16.90;99.90;;;;;;5134086;27;20459;-48
2022/10/23 10:59:11;;;;;;;10.73;4.50;;;16.70;99.90;;;;;;5133433;27;20437;-48
2022/10/23 11:01:42;;;;;;;6.50;4.53;;;17.20;99.90;;;;;;5115679;27;20550;-47
2022/10/23 11:04:17;;;;;;;3.70;3.40;;;17.30;99.90;;;;;;5133592;27;20456;-47
2022/10/23 11:06:48;;;;;;;6.30;4.73;;;17.10;99.90;;;;;;5133679;27;20917;-48
2022/10/23 11:09:20;;;;;;;6.40;4.63;;;17.20;99.90;;;;;;5133364;27;20432;-47
2022/10/23 11:11:47;;;;;;;6.30;4.70;;;17.60;99.90;;;;;;5133884;27;20442;-48
2022/10/23 11:14:16;;;;;;;9.53;5.80;;;17.30;99.90;;;;;;5134023;27;20474;-47
2022/10/23 11:16:46;;;;;;;6.83;5.00;;;17.20;99.90;;;;;;5133495;27;20477;-49
2022/10/23 11:19:20;;;;;;;9.40;6.37;;;17.30;99.90;;;;;;5133307;27;20428;-47
2022/10/23 11:21:53;;;;;;;15.40;5.70;;;17.40;99.90;;;;;;5133401;27;20436;-47
2022/10/23 11:24:46;;;;;;;8.60;4.73;;;17.30;99.90;;;;;;5133254;27;20486;-49
2022/10/23 11:27:25;;;;;;;9.07;5.30;;;17.70;99.90;;;;;;5133532;27;20426;-47
2022/10/23 11:30:17;;;;;;;11.60;6.70;;;18.00;99.90;;;;;;5133052;27;20435;-46
2022/10/23 11:33:02;;;;;;;12.77;5.70;;;17.90;99.90;;;;;;5133079;27;20918;-47
2022/10/23 11:35:44;;;;;;;7.77;5.53;;;17.80;99.90;;;;;;5133468;27;20540;-49
2022/10/23 11:38:17;;;;;;;7.30;5.27;;;17.80;99.90;;;;;;5133090;27;20419;-48
2022/10/23 11:40:48;;;;;;;12.20;6.23;;;17.90;99.90;;;;;;5133301;27;20431;-49
2022/10/23 11:43:26;;;;;;;9.00;6.53;;;18.10;99.90;;;;;;5132956;27;20776;-47
2022/10/23 11:45:53;;;;;;;12.57;6.73;;;18.00;99.90;;;;;;5132635;27;20457;-48
2022/10/23 11:48:22;;;;;;;7.67;4.53;;;17.80;99.90;;;;;;5133109;27;20930;-47
2022/10/23 11:50:54;;;;;;;8.03;5.47;;;18.10;99.90;;;;;;5133258;27;20466;-48
2022/10/23 11:53:36;;;;;;;7.10;5.07;;;18.00;99.90;;;;;;5114165;27;20461;-48
2022/10/23 11:56:26;;;;;;;7.40;4.47;;;18.00;99.90;;;;;;5114599;27;20484;-48
2022/10/23 11:58:54;;;;;;;7.30;5.00;;;18.00;99.90;;;;;;5132405;27;20444;-49
2022/10/23 12:01:30;;;;;;;8.90;5.00;;;17.90;99.90;;;;;;5114378;27;20451;-49
2022/10/23 12:04:00;;;;;;;9.40;4.80;;;17.90;99.90;;;;;;5132465;27;20450;-50
2022/10/23 12:06:30;;;;;;;7.73;4.57;;;18.00;99.90;;;;;;5114412;27;20450;-46
2022/10/23 12:09:02;;;;;;;9.00;4.77;;;18.10;99.90;;;;;;5113694;27;20437;-46
2022/10/23 12:11:44;;;;;;;10.30;4.57;;;18.10;99.90;;;;;;5114500;27;20454;-50
2022/10/23 12:14:26;;;;;;;9.37;4.77;;;18.10;99.90;;;;;;5131867;27;20482;-47
2022/10/23 12:16:53;;;;;;;10.13;4.63;;;18.20;99.90;;;;;;5132704;27;20560;-48
2022/10/23 12:19:22;;;;;;;9.40;3.97;;;18.10;99.90;;;;;;5132318;27;20538;-47
2022/10/23 12:21:52;;;;;;;6.47;3.80;;;17.90;99.90;;;;;;5132302;27;20441;-47
2022/10/23 12:24:38;;;;;;;14.00;3.90;;;18.30;99.90;;;;;;5132109;27;20423;-48
2022/10/23 12:27:25;;;;;;;9.57;4.00;;;18.40;99.90;;;;;;5132554;27;20427;-49
2022/10/23 12:30:21;;;;;;;5.47;3.53;;;18.20;99.90;;;;;;5113630;27;20438;-51
2022/10/23 12:33:11;;;;;;;7.33;3.87;;;18.30;99.90;;;;;;5132209;27;20451;-48
2022/10/23 12:35:58;;;;;;;8.80;3.80;;;18.40;99.90;;;;;;5131721;27;20466;-47
2022/10/23 12:38:26;;;;;;;6.17;3.47;;;18.30;99.90;;;;;;5132065;27;20430;-48
2022/10/23 12:40:56;;;;;;;5.27;3.10;;;18.40;99.90;;;;;;5132149;27;20438;-47
2022/10/23 12:43:27;;;;;;;8.37;3.63;;;18.50;99.90;;;;;;5131855;27;20447;-47
2022/10/23 12:45:56;;;;;;;6.40;3.30;;;18.40;99.90;;;;;;5131413;28;20927;-50
2022/10/23 12:48:24;;;;;;;5.80;2.83;;;18.40;99.90;;;;;;5131128;28;20424;-55
2022/10/23 12:50:53;;;;;;;5.93;3.50;;;18.70;99.90;;;;;;5131112;28;20752;-47
2022/10/23 12:53:23;;;;;;;9.00;2.73;;;18.50;99.90;;;;;;5131397;28;20439;-47
2022/10/23 12:55:53;;;;;;;7.87;3.50;;;18.50;99.90;;;;;;5131601;28;20658;-47
2022/10/23 12:58:21;;;;;;;9.30;3.20;;;18.50;99.90;;;;;;5131626;28;20465;-50
2022/10/23 13:00:52;;;;;;;5.67;3.17;;;18.40;99.90;;;;;;5113544;28;20451;-50
2022/10/23 13:03:22;;;;;;;7.10;3.73;;;18.40;99.90;;;;;;5131624;28;20885;-48
2022/10/23 13:05:51;;;;;;;6.40;3.30;;;18.80;99.90;;;;;;5132126;28;20431;-47
2022/10/23 13:08:18;;;;;;;7.10;3.10;;;18.80;99.90;;;;;;5131852;28;20980;-47